sensor_id;sensor_type;location;lat;lon;timestamp;pressure;altitude;pressure_sealevel;temperature;humidity
1401;BME280;46518;48.842;8.926;2023-03-26T00:01:21;96671.44;;;6.50;100.00
1401;BME280;46518;48.842;8.926;2023-03-26T00:03:51;96667.69;;;6.46;100.00
1401;BME280;46518;48.842;8.926;2023-03-26T00:06:22;96666.09;;;6.45;100.00
1401;BME280;46518;48.842;8.926;2023-03-26T00:08:53;96670.09;;;6.36;100.00
1401;BME280;46518;48.842;8.926;2023-03-26T00:11:25;96672.00;;;6.29;100.00
1401;BME280;46518;48.842;8.926;2023-03-26T00:13:54;96671.13;;;6.23;100.00
1401;BME280;46518;48.842;8.926;2023-03-26T00:16:26;96675.66;;;6.28;100.00
1401;BME280;46518;48.842;8.926;2023-03-26T00:18:55;96674.09;;;6.26;100.00
1401;BME280;46518;48.842;8.926;2023-03-26T00:21:25;96672.25;;;6.27;100.00
1401;BME280;46518;48.842;8.926;2023-03-26T00:23:56;96674.31;;;6.25;100.00
1401;BME280;46518;48.842;8.926;2023-03-26T00:26:26;96669.88;;;6.25;100.00
1401;BME280;46518;48.842;8.926;2023-03-26T00:28:56;96673.28;;;6.26;100.00
1401;BME280;46518;48.842;8.926;2023-03-26T00:31:26;96666.78;;;6.29;100.00
1401;BME280;46518;48.842;8.926;2023-03-26T00:33:55;96669.66;;;6.27;100.00
1401;BME280;46518;48.842;8.926;2023-03-26T00:36:24;96663.59;;;6.38;100.00
1401;BME280;46518;48.842;8.926;2023-03-26T00:38:55;96669.41;;;6.52;100.00
1401;BME280;46518;48.842;8.926;2023-03-26T00:41:24;96652.09;;;6.51;100.00
1401;BME280;46518;48.842;8.926;2023-03-26T00:43:58;96654.09;;;6.84;100.00
1401;BME280;46518;48.842;8.926;2023-03-26T00:46:28;96648.22;;;6.65;99.60
1401;BME280;46518;48.842;8.926;2023-03-26T00:48:57;96651.97;;;6.58;100.00
1401;BME280;46518;48.842;8.926;2023-03-26T00:51:27;96655.28;;;6.41;100.00
1401;BME280;46518;48.842;8.926;2023-03-26T00:53:57;96643.38;;;6.45;100.00
1401;BME280;46518;48.842;8.926;2023-03-26T00:56:25;96642.91;;;6.48;100.00
1401;BME280;46518;48.842;8.926;2023-03-26T00:58:53;96632.22;;;6.50;99.14
1401;BME280;46518;48.842;8.926;2023-03-26T01:01:25;96631.56;;;6.43;100.00
1401;BME280;46518;48.842;8.926;2023-03-26T01:03:57;96631.34;;;6.44;100.00
1401;BME280;46518;48.842;8.926;2023-03-26T01:06:30;96626.78;;;6.40;100.00
1401;BME280;46518;48.842;8.926;2023-03-26T01:09:06;96617.34;;;6.39;100.00
1401;BME280;46518;48.842;8.926;2023-03-26T01:11:40;96622.03;;;6.37;100.00
1401;BME280;46518;48.842;8.926;2023-03-26T01:14:11;96618.16;;;6.39;100.00
1401;BME280;46518;48.842;8.926;2023-03-26T01:16:42;96613.38;;;6.36;100.00
1401;BME280;46518;48.842;8.926;2023-03-26T01:19:14;96603.97;;;6.35;100.00
1401;BME280;46518;48.842;8.926;2023-03-26T01:21:46;96593.19;;;6.32;100.00
1401;BME280;46518;48.842;8.926;2023-03-26T01:24:16;96591.56;;;6.31;100.00
1401;BME280;46518;48.842;8.926;2023-03-26T01:26:55;96590.09;;;6.35;100.00
1401;BME280;46518;48.842;8.926;2023-03-26T01:29:32;96585.88;;;6.34;100.00
1401;BME280;46518;48.842;8.926;2023-03-26T01:32:08;96584.63;;;6.36;100.00
1401;BME280;46518;48.842;8.926;2023-03-26T01:34:51;96580.22;;;6.37;100.00
1401;BME280;46518;48.842;8.926;2023-03-26T01:37:25;96570.06;;;6.52;100.00
1401;BME280;46518;48.842;8.926;2023-03-26T01:40:03;96563.38;;;6.44;100.00
1401;BME280;46518;48.842;8.926;2023-03-26T01:42:36;96568.44;;;6.51;99.58
1401;BME280;46518;48.842;8.926;2023-03-26T01:45:10;96561.72;;;6.67;99.14
1401;BME280;46518;48.842;8.926;2023-03-26T01:47:42;96555.56;;;6.61;98.32
1401;BME280;46518;48.842;8.926;2023-03-26T01:50:12;96554.69;;;6.56;98.43
1401;BME280;46518;48.842;8.926;2023-03-26T01:52:41;96545.97;;;6.50;99.65
1401;BME280;46518;48.842;8.926;2023-03-26T01:55:11;96539.94;;;6.50;98.47
1401;BME280;46518;48.842;8.926;2023-03-26T01:57:49;96536.97;;;6.46;99.21
1401;BME280;46518;48.842;8.926;2023-03-26T02:00:25;96531.06;;;6.51;98.61
1401;BME280;46518;48.842;8.926;2023-03-26T02:03:02;96532.66;;;6.52;99.18
1401;BME280;46518;48.842;8.926;2023-03-26T02:05:35;96520.22;;;6.59;98.53
1401;BME280;46518;48.842;8.926;2023-03-26T02:08:10;96514.03;;;6.48;99.04
1401;BME280;46518;48.842;8.926;2023-03-26T02:10:50;96512.09;;;6.43;99.32
1401;BME280;46518;48.842;8.926;2023-03-26T02:13:19;96501.34;;;6.40;100.00
1401;BME280;46518;48.842;8.926;2023-03-26T02:15:55;96490.00;;;6.34;100.00
1401;BME280;46518;48.842;8.926;2023-03-26T02:18:24;96486.44;;;6.40;100.00
1401;BME280;46518;48.842;8.926;2023-03-26T02:21:04;96495.31;;;6.39;100.00
1401;BME280;46518;48.842;8.926;2023-03-26T02:23:32;96480.09;;;6.36;100.00
1401;BME280;46518;48.842;8.926;2023-03-26T02:26:06;96479.06;;;6.37;100.00
1401;BME280;46518;48.842;8.926;2023-03-26T02:28:44;96482.00;;;6.41;100.00
1401;BME280;46518;48.842;8.926;2023-03-26T02:31:14;96487.56;;;6.44;100.00
1401;BME280;46518;48.842;8.926;2023-03-26T02:33:43;96477.81;;;6.40;100.00
1401;BME280;46518;48.842;8.926;2023-03-26T02:36:14;96479.16;;;6.42;100.00
1401;BME280;46518;48.842;8.926;2023-03-26T02:38:46;96481.00;;;6.42;100.00
1401;BME280;46518;48.842;8.926;2023-03-26T02:41:16;96481.00;;;6.42;100.00
1401;BME280;46518;48.842;8.926;2023-03-26T02:43:56;96472.69;;;6.45;100.00
1401;BME280;46518;48.842;8.926;2023-03-26T02:46:44;96473.16;;;6.42;100.00
1401;BME280;46518;48.842;8.926;2023-03-26T02:49:35;96474.88;;;6.36;100.00
1401;BME280;46518;48.842;8.926;2023-03-26T02:52:04;96470.09;;;6.33;100.00
1401;BME280;46518;48.842;8.926;2023-03-26T02:54:34;96475.34;;;6.33;100.00
1401;BME280;46518;48.842;8.926;2023-03-26T02:57:17;96463.63;;;6.36;100.00
1401;BME280;46518;48.842;8.926;2023-03-26T02:59:51;96461.00;;;6.36;100.00
1401;BME280;46518;48.842;8.926;2023-03-26T03:02:34;96453.94;;;6.36;100.00
1401;BME280;46518;48.842;8.926;2023-03-26T03:05:31;96446.94;;;6.37;100.00
1401;BME280;46518;48.842;8.926;2023-03-26T03:08:20;96444.75;;;6.34;100.00
1401;BME280;46518;48.842;8.926;2023-03-26T03:11:18;96435.66;;;6.36;100.00
1401;BME280;46518;48.842;8.926;2023-03-26T03:13:52;96432.03;;;6.37;100.00
1401;BME280;46518;48.842;8.926;2023-03-26T03:16:28;96423.25;;;6.43;100.00
1401;BME280;46518;48.842;8.926;2023-03-26T03:19:02;96416.19;;;6.44;100.00
1401;BME280;46518;48.842;8.926;2023-03-26T03:21:36;96410.91;;;6.56;100.00
1401;BME280;46518;48.842;8.926;2023-03-26T03:24:06;96411.88;;;6.66;100.00
1401;BME280;46518;48.842;8.926;2023-03-26T03:26:39;96415.03;;;6.52;100.00
1401;BME280;46518;48.842;8.926;2023-03-26T03:29:38;96404.59;;;6.52;100.00
1401;BME280;46518;48.842;8.926;2023-03-26T03:32:42;96398.56;;;6.68;100.00
1401;BME280;46518;48.842;8.926;2023-03-26T03:35:11;96389.84;;;6.62;100.00
1401;BME280;46518;48.842;8.926;2023-03-26T03:37:42;96385.97;;;6.65;100.00
1401;BME280;46518;48.842;8.926;2023-03-26T03:40:12;96384.69;;;6.67;100.00
1401;BME280;46518;48.842;8.926;2023-03-26T03:42:41;96381.22;;;6.62;100.00
1401;BME280;46518;48.842;8.926;2023-03-26T03:45:13;96376.50;;;6.64;100.00
1401;BME280;46518;48.842;8.926;2023-03-26T03:47:50;96377.25;;;6.59;100.00
1401;BME280;46518;48.842;8.926;2023-03-26T03:50:26;96375.91;;;6.57;100.00
1401;BME280;46518;48.842;8.926;2023-03-26T03:53:13;96374.00;;;6.52;100.00
1401;BME280;46518;48.842;8.926;2023-03-26T03:55:46;96380.16;;;6.46;100.00
1401;BME280;46518;48.842;8.926;2023-03-26T03:58:23;96384.75;;;6.56;100.00
1401;BME280;46518;48.842;8.926;2023-03-26T04:00:59;96377.47;;;6.58;100.00
1401;BME280;46518;48.842;8.926;2023-03-26T04:04:04;96368.44;;;6.65;100.00
1401;BME280;46518;48.842;8.926;2023-03-26T04:06:50;96359.25;;;6.63;100.00
1401;BME280;46518;48.842;8.926;2023-03-26T04:09:19;96353.00;;;6.64;100.00
1401;BME280;46518;48.842;8.926;2023-03-26T04:11:48;96337.06;;;6.65;100.00
1401;BME280;46518;48.842;8.926;2023-03-26T04:14:36;96341.28;;;6.66;100.00
1401;BME280;46518;48.842;8.926;2023-03-26T04:17:12;96345.06;;;6.76;100.00
1401;BME280;46518;48.842;8.926;2023-03-26T04:19:43;96339.75;;;6.70;100.00
1401;BME280;46518;48.842;8.926;2023-03-26T04:22:13;96327.09;;;6.62;100.00
1401;BME280;46518;48.842;8.926;2023-03-26T04:24:53;96333.03;;;6.58;100.00
1401;BME280;46518;48.842;8.926;2023-03-26T04:27:44;96325.19;;;6.58;100.00
1401;BME280;46518;48.842;8.926;2023-03-26T04:30:33;96313.94;;;6.74;100.00
1401;BME280;46518;48.842;8.926;2023-03-26T04:33:27;96297.66;;;6.89;100.00
1401;BME280;46518;48.842;8.926;2023-03-26T04:35:56;96286.00;;;6.97;99.76
1401;BME280;46518;48.842;8.926;2023-03-26T04:38:36;96294.72;;;6.85;100.00
1401;BME280;46518;48.842;8.926;2023-03-26T04:41:07;96295.16;;;6.77;100.00
1401;BME280;46518;48.842;8.926;2023-03-26T04:43:52;96294.88;;;6.57;100.00
1401;BME280;46518;48.842;8.926;2023-03-26T04:46:35;96296.50;;;6.63;100.00
1401;BME280;46518;48.842;8.926;2023-03-26T04:49:24;96290.72;;;6.61;100.00
1401;BME280;46518;48.842;8.926;2023-03-26T04:51:52;96276.56;;;6.57;100.00
1401;BME280;46518;48.842;8.926;2023-03-26T04:54:40;96286.06;;;6.63;100.00
1401;BME280;46518;48.842;8.926;2023-03-26T04:57:15;96283.28;;;6.53;100.00
1401;BME280;46518;48.842;8.926;2023-03-26T04:59:48;96283.22;;;6.47;100.00
1401;BME280;46518;48.842;8.926;2023-03-26T05:02:17;96278.63;;;6.55;100.00
1401;BME280;46518;48.842;8.926;2023-03-26T05:04:53;96288.91;;;6.61;100.00
1401;BME280;46518;48.842;8.926;2023-03-26T05:07:26;96283.06;;;6.54;100.00
1401;BME280;46518;48.842;8.926;2023-03-26T05:09:56;96277.44;;;6.62;100.00
1401;BME280;46518;48.842;8.926;2023-03-26T05:12:36;96272.56;;;6.71;100.00
1401;BME280;46518;48.842;8.926;2023-03-26T05:15:10;96271.06;;;6.75;100.00
1401;BME280;46518;48.842;8.926;2023-03-26T05:18:04;96263.28;;;6.80;100.00
1401;BME280;46518;48.842;8.926;2023-03-26T05:20:45;96246.38;;;6.88;100.00
1401;BME280;46518;48.842;8.926;2023-03-26T05:23:13;96239.63;;;6.70;100.00
1401;BME280;46518;48.842;8.926;2023-03-26T05:25:52;96221.25;;;6.65;100.00
1401;BME280;46518;48.842;8.926;2023-03-26T05:28:23;96223.47;;;6.56;100.00
1401;BME280;46518;48.842;8.926;2023-03-26T05:31:05;96216.09;;;6.70;100.00
1401;BME280;46518;48.842;8.926;2023-03-26T05:33:37;96214.25;;;6.70;100.00
1401;BME280;46518;48.842;8.926;2023-03-26T05:36:13;96212.28;;;6.61;100.00
1401;BME280;46518;48.842;8.926;2023-03-26T05:38:45;96211.22;;;6.57;100.00
1401;BME280;46518;48.842;8.926;2023-03-26T05:41:53;96210.13;;;6.75;100.00
1401;BME280;46518;48.842;8.926;2023-03-26T05:44:29;96209.69;;;6.61;100.00
1401;BME280;46518;48.842;8.926;2023-03-26T05:47:01;96206.16;;;6.50;100.00
1401;BME280;46518;48.842;8.926;2023-03-26T05:49:30;96197.03;;;6.53;100.00
1401;BME280;46518;48.842;8.926;2023-03-26T05:51:59;96184.66;;;6.65;100.00
1401;BME280;46518;48.842;8.926;2023-03-26T05:54:38;96179.91;;;6.62;100.00
1401;BME280;46518;48.842;8.926;2023-03-26T05:57:38;96163.25;;;6.68;100.00
1401;BME280;46518;48.842;8.926;2023-03-26T06:00:26;96160.69;;;6.73;100.00
1401;BME280;46518;48.842;8.926;2023-03-26T06:02:55;96168.78;;;6.72;100.00
1401;BME280;46518;48.842;8.926;2023-03-26T06:05:46;96156.19;;;6.68;100.00
1401;BME280;46518;48.842;8.926;2023-03-26T06:08:20;96140.69;;;6.62;100.00
1401;BME280;46518;48.842;8.926;2023-03-26T06:10:56;96142.81;;;6.65;100.00
1401;BME280;46518;48.842;8.926;2023-03-26T06:13:25;96139.59;;;6.58;100.00
1401;BME280;46518;48.842;8.926;2023-03-26T06:15:54;96128.69;;;6.66;100.00
1401;BME280;46518;48.842;8.926;2023-03-26T06:18:31;96121.84;;;6.60;100.00
1401;BME280;46518;48.842;8.926;2023-03-26T06:21:23;96122.31;;;6.79;100.00
1401;BME280;46518;48.842;8.926;2023-03-26T06:24:25;96118.69;;;6.58;99.52
1401;BME280;46518;48.842;8.926;2023-03-26T06:27:16;96123.41;;;6.61;99.90
1401;BME280;46518;48.842;8.926;2023-03-26T06:30:04;96120.97;;;6.76;99.36
1401;BME280;46518;48.842;8.926;2023-03-26T06:33:07;96114.00;;;6.82;97.88
1401;BME280;46518;48.842;8.926;2023-03-26T06:35:44;96128.34;;;6.79;97.09
1401;BME280;46518;48.842;8.926;2023-03-26T06:38:14;96123.78;;;6.69;96.23
1401;BME280;46518;48.842;8.926;2023-03-26T06:40:44;96116.69;;;6.65;98.51
1401;BME280;46518;48.842;8.926;2023-03-26T06:43:36;96110.56;;;6.54;100.00
1401;BME280;46518;48.842;8.926;2023-03-26T06:46:08;96109.63;;;6.65;100.00
1401;BME280;46518;48.842;8.926;2023-03-26T06:48:36;96096.59;;;6.70;99.59
1401;BME280;46518;48.842;8.926;2023-03-26T06:51:23;96084.00;;;6.89;99.87
1401;BME280;46518;48.842;8.926;2023-03-26T06:54:09;96086.78;;;6.83;100.00
1401;BME280;46518;48.842;8.926;2023-03-26T06:56:46;96084.06;;;6.73;99.37
1401;BME280;46518;48.842;8.926;2023-03-26T06:59:35;96082.06;;;6.80;100.00
1401;BME280;46518;48.842;8.926;2023-03-26T07:02:22;96078.34;;;6.76;100.00
1401;BME280;46518;48.842;8.926;2023-03-26T07:05:09;96080.06;;;6.65;100.00
1401;BME280;46518;48.842;8.926;2023-03-26T07:07:57;96071.50;;;6.69;100.00
1401;BME280;46518;48.842;8.926;2023-03-26T07:10:44;96065.72;;;6.95;100.00
1401;BME280;46518;48.842;8.926;2023-03-26T07:13:33;96070.88;;;6.84;100.00
1401;BME280;46518;48.842;8.926;2023-03-26T07:16:22;96023.00;;;7.16;100.00
1401;BME280;46518;48.842;8.926;2023-03-26T07:19:00;96067.47;;;7.16;100.00
1401;BME280;46518;48.842;8.926;2023-03-26T07:21:33;96019.00;;;7.41;100.00
1401;BME280;46518;48.842;8.926;2023-03-26T07:24:10;96053.97;;;7.24;100.00
1401;BME280;46518;48.842;8.926;2023-03-26T07:27:15;96035.25;;;7.10;100.00
1401;BME280;46518;48.842;8.926;2023-03-26T07:29:49;96011.66;;;7.38;100.00
1401;BME280;46518;48.842;8.926;2023-03-26T07:32:47;96022.66;;;7.40;100.00
1401;BME280;46518;48.842;8.926;2023-03-26T07:35:45;96037.16;;;6.61;100.00
1401;BME280;46518;48.842;8.926;2023-03-26T07:38:46;96012.78;;;6.82;100.00
1401;BME280;46518;48.842;8.926;2023-03-26T07:41:39;96004.72;;;7.21;100.00
1401;BME280;46518;48.842;8.926;2023-03-26T07:44:42;96007.75;;;7.40;100.00
1401;BME280;46518;48.842;8.926;2023-03-26T07:47:34;96010.53;;;7.28;100.00
1401;BME280;46518;48.842;8.926;2023-03-26T07:50:24;96002.34;;;7.57;100.00
1401;BME280;46518;48.842;8.926;2023-03-26T07:52:58;95995.88;;;7.70;100.00
1401;BME280;46518;48.842;8.926;2023-03-26T07:55:34;95995.91;;;7.75;100.00
1401;BME280;46518;48.842;8.926;2023-03-26T07:58:43;95996.72;;;7.81;100.00
1401;BME280;46518;48.842;8.926;2023-03-26T08:01:45;95988.84;;;7.81;100.00
1401;BME280;46518;48.842;8.926;2023-03-26T08:04:43;95976.34;;;7.93;100.00
1401;BME280;46518;48.842;8.926;2023-03-26T08:07:51;95975.03;;;7.95;100.00
1401;BME280;46518;48.842;8.926;2023-03-26T08:10:34;95973.13;;;7.81;100.00
1401;BME280;46518;48.842;8.926;2023-03-26T08:13:16;95981.31;;;7.89;100.00
1401;BME280;46518;48.842;8.926;2023-03-26T08:15:49;95978.44;;;7.96;100.00
1401;BME280;46518;48.842;8.926;2023-03-26T08:18:28;95962.72;;;8.01;100.00
1401;BME280;46518;48.842;8.926;2023-03-26T08:21:02;95960.41;;;8.05;100.00
1401;BME280;46518;48.842;8.926;2023-03-26T08:23:38;95952.81;;;8.08;100.00
1401;BME280;46518;48.842;8.926;2023-03-26T08:26:25;95966.06;;;7.81;100.00
1401;BME280;46518;48.842;8.926;2023-03-26T08:29:02;95966.41;;;7.42;100.00
1401;BME280;46518;48.842;8.926;2023-03-26T08:31:36;95961.44;;;7.46;100.00
1401;BME280;46518;48.842;8.926;2023-03-26T08:34:07;95958.63;;;7.15;100.00
1401;BME280;46518;48.842;8.926;2023-03-26T08:36:38;95946.75;;;6.97;100.00
1401;BME280;46518;48.842;8.926;2023-03-26T08:39:06;95953.19;;;6.84;100.00
1401;BME280;46518;48.842;8.926;2023-03-26T08:42:18;95960.41;;;6.72;100.00
1401;BME280;46518;48.842;8.926;2023-03-26T08:45:18;95966.34;;;6.95;100.00
1401;BME280;46518;48.842;8.926;2023-03-26T08:48:00;95963.88;;;7.15;100.00
1401;BME280;46518;48.842;8.926;2023-03-26T08:56:51;95949.31;;;6.92;100.00
1401;BME280;46518;48.842;8.926;2023-03-26T08:59:57;95955.19;;;6.72;100.00
1401;BME280;46518;48.842;8.926;2023-03-26T09:02:40;95954.59;;;6.65;100.00
1401;BME280;46518;48.842;8.926;2023-03-26T09:05:41;95949.59;;;6.63;100.00
1401;BME280;46518;48.842;8.926;2023-03-26T09:08:50;95941.28;;;6.66;100.00
1401;BME280;46518;48.842;8.926;2023-03-26T09:11:47;95933.75;;;6.75;100.00
1401;BME280;46518;48.842;8.926;2023-03-26T09:14:32;95940.06;;;6.79;100.00
1401;BME280;46518;48.842;8.926;2023-03-26T09:17:25;95925.06;;;7.02;100.00
1401;BME280;46518;48.842;8.926;2023-03-26T09:26:26;95931.38;;;7.53;100.00
1401;BME280;46518;48.842;8.926;2023-03-26T09:37:16;95920.75;;;7.81;100.00
1401;BME280;46518;48.842;8.926;2023-03-26T09:44:49;95943.41;;;8.17;100.00
1401;BME280;46518;48.842;8.926;2023-03-26T09:47:37;95938.41;;;8.11;100.00
1401;BME280;46518;48.842;8.926;2023-03-26T09:50:26;95936.34;;;8.28;100.00
1401;BME280;46518;48.842;8.926;2023-03-26T09:53:18;95933.47;;;8.25;100.00
1401;BME280;46518;48.842;8.926;2023-03-26T09:55:58;95934.31;;;8.46;100.00
1401;BME280;46518;48.842;8.926;2023-03-26T09:58:40;95929.34;;;8.64;100.00
1401;BME280;46518;48.842;8.926;2023-03-26T10:01:15;95932.22;;;8.73;100.00
1401;BME280;46518;48.842;8.926;2023-03-26T10:03:56;95923.56;;;8.93;100.00
1401;BME280;46518;48.842;8.926;2023-03-26T10:06:36;95918.81;;;9.16;100.00
1401;BME280;46518;48.842;8.926;2023-03-26T10:09:28;95915.41;;;9.20;100.00
1401;BME280;46518;48.842;8.926;2023-03-26T10:12:09;95912.00;;;9.15;100.00
1401;BME280;46518;48.842;8.926;2023-03-26T10:14:46;95914.84;;;9.39;100.00
1401;BME280;46518;48.842;8.926;2023-03-26T10:20:27;95908.81;;;9.28;94.45
1401;BME280;46518;48.842;8.926;2023-03-26T10:23:07;95924.88;;;9.16;95.81
1401;BME280;46518;48.842;8.926;2023-03-26T10:25:50;95907.00;;;9.13;89.20
1401;BME280;46518;48.842;8.926;2023-03-26T10:28:30;95912.75;;;9.31;88.68
1401;BME280;46518;48.842;8.926;2023-03-26T10:31:18;95907.72;;;9.55;93.86
1401;BME280;46518;48.842;8.926;2023-03-26T10:33:58;95903.97;;;9.76;92.76
1401;BME280;46518;48.842;8.926;2023-03-26T10:36:32;95905.75;;;9.91;85.72
1401;BME280;46518;48.842;8.926;2023-03-26T10:39:27;95897.28;;;9.99;85.35
1401;BME280;46518;48.842;8.926;2023-03-26T10:42:22;95911.09;;;10.20;84.25
1401;BME280;46518;48.842;8.926;2023-03-26T10:45:20;95905.69;;;10.51;87.49
1401;BME280;46518;48.842;8.926;2023-03-26T10:48:12;95903.47;;;10.63;82.92
1401;BME280;46518;48.842;8.926;2023-03-26T10:51:08;95906.88;;;10.69;82.78
1401;BME280;46518;48.842;8.926;2023-03-26T10:53:46;95893.56;;;10.50;75.40
1401;BME280;46518;48.842;8.926;2023-03-26T10:56:21;95885.22;;;10.43;75.05
1401;BME280;46518;48.842;8.926;2023-03-26T10:58:55;95884.78;;;10.65;81.33
1401;BME280;46518;48.842;8.926;2023-03-26T11:01:34;95892.59;;;10.75;79.81
1401;BME280;46518;48.842;8.926;2023-03-26T11:04:13;95889.03;;;10.90;76.86
1401;BME280;46518;48.842;8.926;2023-03-26T11:06:48;95889.34;;;10.83;68.91
1401;BME280;46518;48.842;8.926;2023-03-26T11:09:27;95894.34;;;10.85;70.16
1401;BME280;46518;48.842;8.926;2023-03-26T11:12:04;95891.81;;;10.74;67.52
1401;BME280;46518;48.842;8.926;2023-03-26T11:18:00;95873.09;;;10.81;69.95
1401;BME280;46518;48.842;8.926;2023-03-26T11:20:37;95876.72;;;10.85;67.90
1401;BME280;46518;48.842;8.926;2023-03-26T11:23:25;95887.19;;;10.90;70.04
1401;BME280;46518;48.842;8.926;2023-03-26T11:26:12;95884.59;;;10.85;65.02
1401;BME280;46518;48.842;8.926;2023-03-26T11:32:04;95875.94;;;10.85;65.92
1401;BME280;46518;48.842;8.926;2023-03-26T11:34:39;95881.84;;;10.71;64.97
1401;BME280;46518;48.842;8.926;2023-03-26T11:37:14;95885.38;;;10.56;69.97
1401;BME280;46518;48.842;8.926;2023-03-26T11:39:48;95895.63;;;10.13;76.42
1401;BME280;46518;48.842;8.926;2023-03-26T11:42:21;95896.78;;;9.92;76.59
1401;BME280;46518;48.842;8.926;2023-03-26T11:44:52;95893.66;;;9.85;80.92
1401;BME280;46518;48.842;8.926;2023-03-26T11:47:30;95919.03;;;9.45;83.16
1401;BME280;46518;48.842;8.926;2023-03-26T11:49:59;95933.56;;;9.06;89.71
1401;BME280;46518;48.842;8.926;2023-03-26T11:52:29;95946.41;;;8.77;92.85
1401;BME280;46518;48.842;8.926;2023-03-26T11:54:57;95935.38;;;8.60;100.00
1401;BME280;46518;48.842;8.926;2023-03-26T11:57:28;95924.13;;;8.70;100.00
1401;BME280;46518;48.842;8.926;2023-03-26T12:00:02;95912.28;;;8.98;100.00
1401;BME280;46518;48.842;8.926;2023-03-26T12:02:41;95914.06;;;9.33;98.90
1401;BME280;46518;48.842;8.926;2023-03-26T12:05:13;95913.53;;;9.41;95.60
1401;BME280;46518;48.842;8.926;2023-03-26T12:07:45;95912.50;;;9.37;91.02
1401;BME280;46518;48.842;8.926;2023-03-26T12:10:21;95911.66;;;9.52;92.05
1401;BME280;46518;48.842;8.926;2023-03-26T12:12:53;95917.88;;;9.77;94.11
1401;BME280;46518;48.842;8.926;2023-03-26T12:15:23;95911.28;;;9.84;95.16
1401;BME280;46518;48.842;8.926;2023-03-26T12:17:55;95908.38;;;9.91;92.33
1401;BME280;46518;48.842;8.926;2023-03-26T12:20:33;95904.06;;;10.05;89.85
1401;BME280;46518;48.842;8.926;2023-03-26T12:23:05;95904.66;;;9.97;88.86
1401;BME280;46518;48.842;8.926;2023-03-26T12:25:35;95908.53;;;10.10;85.85
1401;BME280;46518;48.842;8.926;2023-03-26T12:28:15;95898.56;;;10.07;87.68
1401;BME280;46518;48.842;8.926;2023-03-26T12:30:51;95893.16;;;10.32;87.06
1401;BME280;46518;48.842;8.926;2023-03-26T12:33:24;95890.31;;;10.63;90.56
1401;BME280;46518;48.842;8.926;2023-03-26T12:35:55;95889.69;;;10.76;86.28
1401;BME280;46518;48.842;8.926;2023-03-26T12:38:30;95887.34;;;11.04;82.93
1401;BME280;46518;48.842;8.926;2023-03-26T12:41:04;95886.53;;;10.74;76.08
1401;BME280;46518;48.842;8.926;2023-03-26T12:43:39;95891.47;;;10.52;71.98
1401;BME280;46518;48.842;8.926;2023-03-26T12:46:29;95875.66;;;10.12;72.79
1401;BME280;46518;48.842;8.926;2023-03-26T12:49:19;95860.59;;;10.28;76.33
1401;BME280;46518;48.842;8.926;2023-03-26T12:51:52;95857.03;;;10.48;77.96
1401;BME280;46518;48.842;8.926;2023-03-26T12:54:33;95852.44;;;10.64;75.88
1401;BME280;46518;48.842;8.926;2023-03-26T12:57:17;95852.91;;;10.71;73.91
1401;BME280;46518;48.842;8.926;2023-03-26T13:00:00;95848.06;;;10.49;69.78
1401;BME280;46518;48.842;8.926;2023-03-26T13:02:49;95843.88;;;10.48;70.74
1401;BME280;46518;48.842;8.926;2023-03-26T13:05:55;95846.16;;;10.60;68.55
1401;BME280;46518;48.842;8.926;2023-03-26T13:08:41;95855.78;;;10.70;70.13
1401;BME280;46518;48.842;8.926;2023-03-26T13:11:19;95854.81;;;10.90;72.48
1401;BME280;46518;48.842;8.926;2023-03-26T13:14:03;95855.75;;;10.75;69.12
1401;BME280;46518;48.842;8.926;2023-03-26T13:16:35;95844.25;;;10.66;70.02
1401;BME280;46518;48.842;8.926;2023-03-26T13:19:13;95846.09;;;10.65;70.19
1401;BME280;46518;48.842;8.926;2023-03-26T13:21:55;95832.31;;;10.78;72.51
1401;BME280;46518;48.842;8.926;2023-03-26T13:24:34;95824.78;;;10.96;72.50
1401;BME280;46518;48.842;8.926;2023-03-26T13:27:30;95828.19;;;10.96;73.46
1401;BME280;46518;48.842;8.926;2023-03-26T13:30:06;95813.56;;;11.09;68.41
1401;BME280;46518;48.842;8.926;2023-03-26T13:32:56;95810.94;;;11.09;69.20
1401;BME280;46518;48.842;8.926;2023-03-26T13:35:33;95821.31;;;11.25;71.58
1401;BME280;46518;48.842;8.926;2023-03-26T13:38:12;95815.06;;;11.15;68.60
1401;BME280;46518;48.842;8.926;2023-03-26T13:40:50;95822.44;;;11.18;64.72
1401;BME280;46518;48.842;8.926;2023-03-26T13:43:31;95821.16;;;11.16;70.13
1401;BME280;46518;48.842;8.926;2023-03-26T13:46:07;95819.94;;;11.27;68.05
1401;BME280;46518;48.842;8.926;2023-03-26T13:48:42;95812.06;;;11.27;66.95
1401;BME280;46518;48.842;8.926;2023-03-26T13:51:17;95816.25;;;11.28;64.28
1401;BME280;46518;48.842;8.926;2023-03-26T13:53:54;95805.50;;;11.25;64.28
1401;BME280;46518;48.842;8.926;2023-03-26T13:56:27;95808.84;;;11.30;65.27
1401;BME280;46518;48.842;8.926;2023-03-26T13:59:02;95812.22;;;11.36;66.09
1401;BME280;46518;48.842;8.926;2023-03-26T14:01:38;95805.72;;;11.28;65.50
1401;BME280;46518;48.842;8.926;2023-03-26T14:04:14;95797.47;;;11.35;64.38
1401;BME280;46518;48.842;8.926;2023-03-26T14:06:49;95799.72;;;11.22;65.21
1401;BME280;46518;48.842;8.926;2023-03-26T14:09:28;95796.44;;;11.36;64.66
1401;BME280;46518;48.842;8.926;2023-03-26T14:12:31;95805.81;;;11.42;65.81
1401;BME280;46518;48.842;8.926;2023-03-26T14:15:03;95811.78;;;11.29;67.43
1401;BME280;46518;48.842;8.926;2023-03-26T14:17:36;95810.66;;;11.35;63.79
1401;BME280;46518;48.842;8.926;2023-03-26T14:20:25;95814.41;;;11.05;60.68
1401;BME280;46518;48.842;8.926;2023-03-26T14:23:22;95819.44;;;10.77;63.00
1401;BME280;46518;48.842;8.926;2023-03-26T14:26:12;95814.78;;;10.69;61.21
1401;BME280;46518;48.842;8.926;2023-03-26T14:32:17;95847.88;;;10.41;65.88
1401;BME280;46518;48.842;8.926;2023-03-26T14:35:10;95847.06;;;10.01;68.71
1401;BME280;46518;48.842;8.926;2023-03-26T14:40:52;95865.91;;;9.68;70.13
1401;BME280;46518;48.842;8.926;2023-03-26T14:43:47;95868.91;;;9.36;72.44
1401;BME280;46518;48.842;8.926;2023-03-26T14:46:25;95880.69;;;9.49;74.38
1401;BME280;46518;48.842;8.926;2023-03-26T14:49:19;95904.69;;;9.01;79.54
1401;BME280;46518;48.842;8.926;2023-03-26T14:52:01;95930.03;;;8.09;89.48
1401;BME280;46518;48.842;8.926;2023-03-26T14:54:35;95918.56;;;7.57;93.95
1401;BME280;46518;48.842;8.926;2023-03-26T14:57:29;95901.25;;;7.03;97.35
1401;BME280;46518;48.842;8.926;2023-03-26T15:00:46;95907.13;;;6.83;100.00